Flight Track Log - Related Links

Times and Time Zones

All times are in EDT time to prevent confusion due to time zone crossing. See the SWA2433 flight status page for this flight to view local times or setup timezone preferences in your user account.

Time Position Orientation Groundspeed Altitude Reporting Facility
EDT Latitude Longitude Course Direction KTS MPH feet Rate Location/Type
Sun 04:13:21 PM 29.5689 -98.5236 309° West 165 190 3,200  Level Houston Center
Sun 04:14:23 PM 29.6167 -98.5700 320° Northwest 233 268 6,700 3,532 Climbing Houston Center
Sun 04:15:25 PM 29.6908 -98.5619 North 263 303 10,500 3,072 Climbing Houston Center
Sun 04:16:28 PM 29.7756 -98.5283 19° North 324 373 13,100 2,976 Climbing Houston Center
Sun 04:17:30 PM 29.8725 -98.4883 20° North 340 391 16,700 3,097 Climbing Houston Center
Sun 04:18:32 PM 29.9692 -98.4483 20° North 370 426 19,500 2,758 Climbing Houston Center
Sun 04:19:34 PM 30.0703 -98.4072 19° North 371 427 22,400 2,565 Climbing Houston Center
Sun 04:20:36 PM 30.1850 -98.3806 11° North 392 451 24,800 2,129 Climbing Houston Center
Sun 04:21:38 PM 30.2983 -98.3656 North 407 468 26,800 2,032 Climbing Houston Center
Sun 04:22:40 PM 30.4158 -98.3481 North 422 486 29,000 1,065 Climbing Houston Center
Sun 04:23:42 PM 30.5308 -98.3311 North 413 475 29,000  Level Houston Center
Sun 04:24:44 PM 30.6458 -98.3142 North 411 473 29,000  Level Houston Center
Sun 04:25:46 PM 30.7597 -98.2969 North 408 470 29,000  Level Houston Center
Sun 04:26:48 PM 30.8717 -98.2575 17° North 423 487 29,000  Level Houston Center
Sun 04:27:51 PM 30.9989 -98.1886 25° Northeast 425 489 29,000  Level Houston Center
Sun 04:28:52 PM 31.1069 -98.1314 24° Northeast 421 484 29,000  Level Fort Worth Center
Sun 04:29:52 PM 31.2136 -98.0742 25° Northeast 421 484 29,000  Level Fort Worth Center
Sun 04:30:52 PM 31.3100 -98.0211 25° Northeast 421 484 29,000 -717 Level Fort Worth Center
Sun 04:34:03 PM 31.6475 -97.8367 25° Northeast 419 482 26,000 -1,275 Descending Houston Center
Sun 04:34:52 PM 31.7347 -97.7872 26° Northeast 415 478 23,900 -2,422 Descending Fort Worth Center
Sun 04:35:52 PM 31.8414 -97.7289 25° Northeast 398 458 21,600 -2,300 Descending Fort Worth Center
Sun 04:36:52 PM 31.9353 -97.6778 25° Northeast 378 435 19,300 -2,150 Descending Fort Worth Center
Sun 04:37:52 PM 32.0253 -97.6267 26° Northeast 360 414 17,300 -2,200 Descending Fort Worth Center
Sun 04:38:52 PM 32.1108 -97.5828 23° Northeast 346 398 14,900 -1,832 Descending Fort Worth Center
Sun 04:41:02 PM 32.2833 -97.4833 26° Northeast 285 328 11,500 -1,367 Descending Dallas / Fort Worth TRACON
Sun 04:41:52 PM 32.3364 -97.4331 39° Northeast 290 334 10,800 -1,200 Descending Fort Worth Center
Sun 04:42:52 PM 32.3700 -97.3519 64° Northeast 266 306 9,300 -1,200 Descending Fort Worth Center
Sun 04:43:52 PM 32.3781 -97.2583 84° East 266 306 8,400 -1,000 Descending Fort Worth Center
Sun 04:44:52 PM 32.3822 -97.1675 87° East 284 327 7,300 -1,000 Descending Fort Worth Center
Sun 04:45:52 PM 32.3883 -97.0739 86° East 279 321 6,400 -650 Descending Fort Worth Center
Sun 04:46:52 PM 32.3942 -96.9853 86° East 274 315 6,000 -550 Descending Fort Worth Center
Sun 04:47:52 PM 32.4044 -96.8942 82° East 269 310 5,300 -800 Descending Fort Worth Center
Sun 04:48:52 PM 32.4292 -96.8228 68° East 266 306 4,400 -650 Descending Fort Worth Center
Sun 04:49:52 PM 32.4978 -96.7828 26° Northeast 242 278 4,000 -400 Descending Fort Worth Center
Sun 04:50:52 PM 32.5625 -96.7603 16° North 248 285 3,600 -500 Descending Fort Worth Center
Sun 04:51:52 PM 32.6375 -96.7669 356° North 243 280 3,000 -474 Descending Fort Worth Center
Sun 04:52:08 PM 32.6500 -96.7667 North 247 284 3,000 -395 Level Dallas / Fort Worth TRACON
Sun 04:53:08 PM 32.7167 -96.7833 348° North 228 262 2,500 -300 Descending Dallas / Fort Worth TRACON
Sun 04:54:08 PM 32.7667 -96.8000 344° North 178 205 2,400 -700 Descending Dallas / Fort Worth TRACON
Sun 04:55:08 PM 32.8167 -96.8167 344° North 145 167 1,100 -1,300 Descending Dallas / Fort Worth TRACON
Sun 04:57:00 PM 32.8333 -96.8500 52° Northeast  Level FlightAware Approximate

Login

Don't have an account? Register now (free) for customized features, flight alerts, and more!